createdAt,value
2018-09-09T00:00:21.184Z,0.00
2018-09-09T00:03:21.129Z,0.00
2018-09-09T00:06:22.770Z,0.00
2018-09-09T00:09:21.066Z,0.00
2018-09-09T00:12:21.091Z,0.00
2018-09-09T00:15:21.001Z,0.00
2018-09-09T00:18:22.232Z,0.00
2018-09-09T00:21:23.743Z,0.00
2018-09-09T00:24:20.975Z,0.00
2018-09-09T00:27:20.868Z,0.00
2018-09-09T00:30:20.884Z,0.00
2018-09-09T00:33:20.806Z,0.00
2018-09-09T00:36:20.775Z,0.00
2018-09-09T00:39:20.738Z,0.00
2018-09-09T00:42:20.722Z,0.00
2018-09-09T00:45:20.657Z,0.00
2018-09-09T00:48:20.645Z,0.00
2018-09-09T00:51:20.606Z,0.00
2018-09-09T00:54:20.602Z,0.00
2018-09-09T00:57:20.533Z,0.00
2018-09-09T01:00:20.555Z,0.00
2018-09-09T01:03:20.461Z,0.00
2018-09-09T01:06:20.484Z,0.00
2018-09-09T01:09:20.404Z,0.00
2018-09-09T01:12:20.705Z,0.00
2018-09-09T01:15:20.323Z,0.00
2018-09-09T01:18:20.328Z,0.00
2018-09-09T01:21:20.258Z,0.00
2018-09-09T01:24:20.243Z,0.00
2018-09-09T01:27:20.265Z,0.00
2018-09-09T01:30:20.173Z,0.00
2018-09-09T01:33:20.129Z,0.00
2018-09-09T01:36:20.115Z,0.00
2018-09-09T01:39:20.052Z,0.00
2018-09-09T01:42:20.050Z,0.00
2018-09-09T01:45:20.003Z,0.00
2018-09-09T01:48:19.991Z,0.00
2018-09-09T01:51:19.952Z,0.00
2018-09-09T01:54:19.932Z,0.00
2018-09-09T01:57:19.862Z,0.00
2018-09-09T02:00:19.881Z,0.00
2018-09-09T02:03:19.810Z,0.00
2018-09-09T02:06:19.770Z,0.00
2018-09-09T02:09:19.722Z,0.00
2018-09-09T02:12:19.725Z,0.00
2018-09-09T02:15:19.685Z,0.00
2018-09-09T02:18:19.747Z,0.00
2018-09-09T02:21:19.605Z,0.00
2018-09-09T02:24:19.598Z,0.00
2018-09-09T02:27:19.593Z,0.00
2018-09-09T02:30:19.526Z,0.00
2018-09-09T02:33:19.475Z,0.00
2018-09-09T02:36:19.469Z,0.00
2018-09-09T02:39:19.399Z,0.00
2018-09-09T02:42:19.366Z,0.00
2018-09-09T02:45:19.335Z,0.00
2018-09-09T02:48:19.321Z,0.00
2018-09-09T02:51:19.254Z,0.00
2018-09-09T02:54:19.242Z,0.00
2018-09-09T02:57:19.223Z,0.00
2018-09-09T03:00:19.173Z,0.00
2018-09-09T03:03:19.128Z,0.00
2018-09-09T03:06:19.104Z,0.00
2018-09-09T03:09:19.088Z,0.00
2018-09-09T03:12:19.044Z,0.00
2018-09-09T03:15:19.029Z,0.00
2018-09-09T03:18:18.965Z,0.00
2018-09-09T03:21:18.920Z,0.00
2018-09-09T03:24:18.925Z,0.00
2018-09-09T03:27:18.851Z,0.00
2018-09-09T03:30:20.755Z,0.00
2018-09-09T03:33:18.805Z,0.00
2018-09-09T03:36:18.781Z,0.00
2018-09-09T03:39:18.738Z,0.00
2018-09-09T03:42:18.719Z,0.00
2018-09-09T03:45:18.656Z,0.00
2018-09-09T03:48:18.647Z,0.00
2018-09-09T03:51:18.572Z,0.00
2018-09-09T03:54:18.569Z,0.00
2018-09-09T03:57:18.526Z,0.00
2018-09-09T04:00:18.490Z,0.00
2018-09-09T04:03:18.454Z,0.00
2018-09-09T04:06:18.450Z,0.00
2018-09-09T04:09:18.399Z,0.00
2018-09-09T04:12:18.378Z,0.00
2018-09-09T04:15:18.305Z,0.00
2018-09-09T04:18:18.327Z,0.00
2018-09-09T04:21:18.252Z,0.00
2018-09-09T04:24:18.247Z,0.00
2018-09-09T04:27:18.179Z,0.00
2018-09-09T04:30:18.207Z,0.00
2018-09-09T04:33:18.158Z,0.00
2018-09-09T04:36:18.321Z,0.00
2018-09-09T04:39:18.052Z,0.00
2018-09-09T04:42:18.036Z,0.00
2018-09-09T04:45:17.996Z,0.00
2018-09-09T04:48:17.975Z,0.00
2018-09-09T04:51:17.919Z,0.00
2018-09-09T04:54:17.882Z,5.62
2018-09-09T04:57:17.842Z,11.25
2018-09-09T05:00:17.901Z,16.88
2018-09-09T05:03:17.773Z,16.88
2018-09-09T05:06:17.756Z,22.50
2018-09-09T05:09:17.721Z,28.12
2018-09-09T05:12:17.710Z,39.38
2018-09-09T05:15:17.663Z,50.62
2018-09-09T05:18:17.675Z,56.25
2018-09-09T05:21:17.594Z,67.50
2018-09-09T05:24:17.592Z,78.75
2018-09-09T05:27:17.518Z,84.38
2018-09-09T05:30:17.511Z,84.38
2018-09-09T05:33:17.441Z,78.75
2018-09-09T05:36:17.456Z,73.12
2018-09-09T05:39:17.368Z,73.12
2018-09-09T05:42:17.403Z,78.75
2018-09-09T05:45:17.303Z,84.38
2018-09-09T05:48:17.287Z,95.62
2018-09-09T05:51:17.231Z,101.25
2018-09-09T05:54:17.211Z,95.62
2018-09-09T05:57:17.195Z,106.88
2018-09-09T06:00:17.210Z,123.75
2018-09-09T06:03:17.113Z,151.88
2018-09-09T06:06:17.111Z,163.12
2018-09-09T06:09:17.103Z,185.62
2018-09-09T06:12:17.121Z,191.25
2018-09-09T06:15:16.997Z,196.88
2018-09-09T06:18:17.016Z,202.50
2018-09-09T06:21:16.925Z,213.75
2018-09-09T06:24:16.909Z,225.00
2018-09-09T06:27:17.218Z,225.00
2018-09-09T06:30:16.885Z,230.62
2018-09-09T06:33:16.767Z,225.00
2018-09-09T06:36:16.764Z,236.25
2018-09-09T06:39:16.720Z,241.88
2018-09-09T06:42:16.694Z,253.12
2018-09-09T06:45:16.666Z,270.00
2018-09-09T06:48:16.643Z,281.25
2018-09-09T06:51:16.607Z,298.12
2018-09-09T06:54:16.550Z,320.62
2018-09-09T06:57:16.554Z,348.75
2018-09-09T07:00:16.521Z,427.50
2018-09-09T07:03:16.443Z,495.00
2018-09-09T07:06:16.603Z,579.38
2018-09-09T07:09:16.366Z,669.38
2018-09-09T07:12:18.257Z,669.38
2018-09-09T07:15:16.308Z,765.00
2018-09-09T07:18:16.291Z,781.88
2018-09-09T07:21:16.269Z,691.88
2018-09-09T07:24:16.235Z,703.12
2018-09-09T07:27:16.402Z,787.50
2018-09-09T07:30:16.147Z,703.12
2018-09-09T07:33:16.121Z,748.12
2018-09-09T07:36:16.081Z,691.88
2018-09-09T07:39:16.049Z,669.38
2018-09-09T07:42:16.071Z,646.88
2018-09-09T07:45:15.980Z,641.25
2018-09-09T07:48:17.703Z,658.12
2018-09-09T07:51:15.928Z,680.62
2018-09-09T07:54:15.884Z,686.25
2018-09-09T07:57:15.850Z,703.12
2018-09-09T08:00:15.838Z,714.38
2018-09-09T08:03:15.810Z,714.38
2018-09-09T08:06:15.772Z,736.88
2018-09-09T08:09:15.719Z,781.88
2018-09-09T08:12:15.733Z,843.75
2018-09-09T08:15:15.775Z,877.50
2018-09-09T08:18:15.637Z,888.75
2018-09-09T08:21:15.583Z,922.50
2018-09-09T08:24:15.562Z,1012.50
2018-09-09T08:27:15.504Z,950.62
2018-09-09T08:30:15.526Z,905.62
2018-09-09T08:33:15.467Z,894.38
2018-09-09T08:36:15.683Z,866.25
2018-09-09T08:39:15.393Z,810.00
2018-09-09T08:42:15.392Z,787.50
2018-09-09T08:45:15.325Z,804.38
2018-09-09T08:48:15.292Z,810.00
2018-09-09T08:51:15.265Z,815.62
2018-09-09T08:54:15.216Z,826.88
2018-09-09T08:57:15.171Z,984.38
2018-09-09T09:00:15.171Z,1001.25
2018-09-09T09:03:15.108Z,1198.12
2018-09-09T09:06:15.129Z,1220.62
2018-09-09T09:09:15.088Z,1192.50
2018-09-09T09:12:15.021Z,1918.12
2018-09-09T09:15:14.988Z,1800.00
2018-09-09T09:18:14.980Z,1940.62
2018-09-09T09:21:14.951Z,2025.00
2018-09-09T09:24:14.893Z,1788.75
2018-09-09T09:27:14.853Z,2238.75
2018-09-09T09:30:14.867Z,2289.38
2018-09-09T09:33:14.823Z,1518.75
2018-09-09T09:36:14.804Z,871.88
2018-09-09T09:39:14.774Z,798.75
2018-09-09T09:42:14.720Z,1400.62
2018-09-09T09:45:14.670Z,1569.38
2018-09-09T09:48:14.638Z,2058.75
2018-09-09T09:51:14.630Z,2221.88
2018-09-09T09:54:14.694Z,2210.62
2018-09-09T09:57:14.556Z,2075.62
2018-09-09T10:00:14.579Z,1237.50
2018-09-09T10:03:14.637Z,1535.62
2018-09-09T10:06:14.457Z,1490.62
2018-09-09T10:09:14.427Z,1456.88
2018-09-09T10:12:14.427Z,2300.62
2018-09-09T10:15:14.462Z,2126.25
2018-09-09T10:18:14.356Z,2047.50
2018-09-09T10:21:14.290Z,2109.38
2018-09-09T10:24:14.282Z,2182.50
2018-09-09T10:27:14.609Z,2148.75
2018-09-09T10:30:14.273Z,2379.38
2018-09-09T10:33:14.169Z,2334.38
2018-09-09T10:36:14.357Z,2520.00
2018-09-09T10:39:14.125Z,2570.62
2018-09-09T10:42:14.112Z,1355.62
2018-09-09T10:45:14.047Z,1231.88
2018-09-09T10:48:14.039Z,3099.38
2018-09-09T10:51:14.008Z,2773.12
2018-09-09T10:54:13.974Z,1563.75
2018-09-09T10:57:14.184Z,2514.38
2018-09-09T11:00:13.949Z,2362.50
2018-09-09T11:03:13.872Z,1423.12
2018-09-09T11:06:13.898Z,1125.00
2018-09-09T11:09:13.807Z,1125.00
2018-09-09T11:12:13.800Z,1901.25
2018-09-09T11:15:13.741Z,2401.88
2018-09-09T11:18:13.725Z,1755.00
2018-09-09T11:21:13.687Z,2193.75
2018-09-09T11:24:13.860Z,2385.00
2018-09-09T11:27:13.620Z,2401.88
2018-09-09T11:30:15.049Z,2266.88
2018-09-09T11:33:13.723Z,2036.25
2018-09-09T11:36:13.885Z,2250.00
2018-09-09T11:39:13.522Z,2216.25
2018-09-09T11:42:13.484Z,2323.12
2018-09-09T11:45:13.462Z,2430.00
2018-09-09T11:48:13.513Z,1620.00
2018-09-09T11:51:13.413Z,1563.75
2018-09-09T11:54:13.375Z,1518.75
2018-09-09T11:57:13.347Z,1276.88
2018-09-09T12:00:13.313Z,1456.88
2018-09-09T12:03:13.264Z,2857.50
2018-09-09T12:06:14.039Z,2098.12
2018-09-09T12:09:13.264Z,1631.25
2018-09-09T12:12:13.298Z,1760.62
2018-09-09T12:15:13.216Z,1974.38
2018-09-09T12:18:13.212Z,2351.25
2018-09-09T12:21:13.116Z,2413.12
2018-09-09T12:24:13.075Z,1468.12
2018-09-09T12:27:19.730Z,2981.25
2018-09-09T12:30:13.015Z,1580.62
2018-09-09T12:33:12.985Z,1721.25
2018-09-09T12:36:12.993Z,1923.75
2018-09-09T12:39:12.972Z,1440.00
2018-09-09T12:42:12.936Z,2176.88
2018-09-09T12:45:12.872Z,1563.75
2018-09-09T12:48:12.848Z,2666.25
2018-09-09T12:51:12.789Z,1434.38
2018-09-09T12:54:12.788Z,2368.12
2018-09-09T12:57:12.785Z,2182.50
2018-09-09T13:00:12.772Z,1608.75
2018-09-09T13:03:12.690Z,2283.75
2018-09-09T13:06:12.666Z,1366.88
2018-09-09T13:09:12.643Z,1181.25
2018-09-09T13:12:12.630Z,1119.38
2018-09-09T13:15:12.623Z,1186.88
2018-09-09T13:18:12.544Z,1198.12
2018-09-09T13:21:12.501Z,1282.50
2018-09-09T13:24:12.538Z,1248.75
2018-09-09T13:27:12.446Z,1513.12
2018-09-09T13:30:12.424Z,1676.25
2018-09-09T13:33:12.448Z,1766.25
2018-09-09T13:36:12.395Z,1738.12
2018-09-09T13:39:12.333Z,1591.88
2018-09-09T13:42:12.370Z,1434.38
2018-09-09T13:45:12.267Z,1614.38
2018-09-09T13:48:12.365Z,596.25
2018-09-09T13:51:12.201Z,776.25
2018-09-09T13:54:12.217Z,798.75
2018-09-09T13:57:13.279Z,1012.50
2018-09-09T14:00:12.112Z,804.38
2018-09-09T14:03:12.077Z,1254.38
2018-09-09T14:06:12.111Z,1074.38
2018-09-09T14:09:12.023Z,871.88
2018-09-09T14:12:12.020Z,680.62
2018-09-09T14:15:11.994Z,1265.62
2018-09-09T14:18:11.937Z,1220.62
2018-09-09T14:21:11.896Z,832.50
2018-09-09T14:24:11.892Z,1428.75
2018-09-09T14:27:11.826Z,1012.50
2018-09-09T14:30:11.809Z,1445.62
2018-09-09T14:33:11.777Z,1321.88
2018-09-09T14:36:11.769Z,1102.50
2018-09-09T14:39:11.716Z,1372.50
2018-09-09T14:42:11.679Z,1192.50
2018-09-09T14:45:11.643Z,1327.50
2018-09-09T14:48:11.622Z,1029.38
2018-09-09T14:51:11.586Z,680.62
2018-09-09T14:54:11.549Z,826.88
2018-09-09T14:57:11.521Z,810.00
2018-09-09T15:00:11.514Z,860.62
2018-09-09T15:03:11.508Z,686.25
2018-09-09T15:06:11.536Z,720.00
2018-09-09T15:09:11.436Z,765.00
2018-09-09T15:12:11.441Z,933.75
2018-09-09T15:15:11.376Z,551.25
2018-09-09T15:18:11.334Z,517.50
2018-09-09T15:21:11.333Z,500.62
2018-09-09T15:24:11.297Z,500.62
2018-09-09T15:27:11.240Z,798.75
2018-09-09T15:30:11.166Z,714.38
2018-09-09T15:33:11.243Z,838.12
2018-09-09T15:36:11.135Z,911.25
2018-09-09T15:39:11.069Z,883.12
2018-09-09T15:42:11.083Z,956.25
2018-09-09T15:45:11.013Z,793.12
2018-09-09T15:48:11.004Z,697.50
2018-09-09T15:51:10.957Z,821.25
2018-09-09T15:54:10.933Z,500.62
2018-09-09T15:57:11.047Z,427.50
2018-09-09T16:00:10.881Z,410.62
2018-09-09T16:03:10.842Z,495.00
2018-09-09T16:06:12.759Z,472.50
2018-09-09T16:09:10.791Z,551.25
2018-09-09T16:12:10.769Z,472.50
2018-09-09T16:15:10.707Z,421.88
2018-09-09T16:18:10.663Z,506.25
2018-09-09T16:21:10.625Z,438.75
2018-09-09T16:24:10.635Z,371.25
2018-09-09T16:27:10.555Z,326.25
2018-09-09T16:30:12.268Z,309.38
2018-09-09T16:33:10.484Z,298.12
2018-09-09T16:36:10.470Z,286.88
2018-09-09T16:39:10.425Z,275.62
2018-09-09T16:42:10.470Z,270.00
2018-09-09T16:45:10.411Z,264.38
2018-09-09T16:48:12.294Z,264.38
2018-09-09T16:51:10.361Z,264.38
2018-09-09T16:54:10.323Z,258.75
2018-09-09T16:57:10.541Z,264.38
2018-09-09T17:00:10.261Z,337.50
2018-09-09T17:03:10.253Z,416.25
2018-09-09T17:06:10.166Z,376.88
2018-09-09T17:09:10.119Z,253.12
2018-09-09T17:12:10.089Z,286.88
2018-09-09T17:15:10.039Z,303.75
2018-09-09T17:18:10.014Z,292.50
2018-09-09T17:21:09.963Z,264.38
2018-09-09T17:24:09.943Z,230.62
2018-09-09T17:27:10.101Z,219.38
2018-09-09T17:30:09.867Z,185.62
2018-09-09T17:33:09.826Z,129.38
2018-09-09T17:36:09.824Z,106.88
2018-09-09T17:39:09.775Z,90.00
2018-09-09T17:42:09.751Z,78.75
2018-09-09T17:45:09.704Z,67.50
2018-09-09T17:48:09.689Z,61.88
2018-09-09T17:51:09.651Z,50.62
2018-09-09T17:54:09.611Z,39.38
2018-09-09T17:57:09.654Z,33.75
2018-09-09T18:00:09.558Z,28.12
2018-09-09T18:03:09.493Z,22.50
2018-09-09T18:06:09.467Z,11.25
2018-09-09T18:09:09.430Z,5.62
2018-09-09T18:12:09.393Z,5.62
2018-09-09T18:15:09.350Z,0.00
2018-09-09T18:18:09.334Z,0.00
2018-09-09T18:21:09.275Z,0.00
2018-09-09T18:24:09.274Z,0.00
2018-09-09T18:27:09.208Z,0.00
2018-09-09T18:30:09.197Z,0.00
2018-09-09T18:33:09.139Z,0.00
2018-09-09T18:36:09.115Z,0.00
2018-09-09T18:39:09.320Z,0.00
2018-09-09T18:42:09.064Z,0.00
2018-09-09T18:45:09.015Z,0.00
2018-09-09T18:48:09.015Z,0.00
2018-09-09T18:51:08.942Z,0.00
2018-09-09T18:54:08.912Z,0.00
2018-09-09T18:57:08.878Z,0.00
2018-09-09T19:00:08.957Z,0.00
2018-09-09T19:03:08.794Z,0.00
2018-09-09T19:06:08.819Z,0.00
2018-09-09T19:09:08.727Z,0.00
2018-09-09T19:12:08.718Z,0.00
2018-09-09T19:15:08.658Z,0.00
2018-09-09T19:18:08.642Z,0.00
2018-09-09T19:21:08.604Z,0.00
2018-09-09T19:24:08.572Z,0.00
2018-09-09T19:27:08.534Z,0.00
2018-09-09T19:30:08.515Z,0.00
2018-09-09T19:33:08.477Z,0.00
2018-09-09T19:36:08.450Z,0.00
2018-09-09T19:39:08.390Z,0.00
2018-09-09T19:42:08.372Z,0.00
2018-09-09T19:45:08.354Z,0.00
2018-09-09T19:48:08.302Z,0.00
2018-09-09T19:51:08.250Z,0.00
2018-09-09T19:54:08.232Z,0.00
2018-09-09T19:57:08.335Z,0.00
2018-09-09T20:00:08.175Z,0.00
2018-09-09T20:03:08.125Z,0.00
2018-09-09T20:06:08.101Z,0.00
2018-09-09T20:09:08.053Z,0.00
2018-09-09T20:12:08.059Z,0.00
2018-09-09T20:15:08.031Z,0.00
2018-09-09T20:18:07.979Z,0.00
2018-09-09T20:21:07.931Z,0.00
2018-09-09T20:24:07.909Z,0.00
2018-09-09T20:27:07.895Z,0.00
2018-09-09T20:30:07.860Z,0.00
2018-09-09T20:33:07.795Z,0.00
2018-09-09T20:36:07.768Z,0.00
2018-09-09T20:39:07.716Z,0.00
2018-09-09T20:42:07.744Z,0.00
2018-09-09T20:45:07.688Z,0.00
2018-09-09T20:48:07.637Z,0.00
2018-09-09T20:51:07.587Z,0.00
2018-09-09T20:54:07.577Z,0.00
2018-09-09T20:57:07.548Z,0.00
2018-09-09T21:00:07.599Z,0.00
2018-09-09T21:03:07.469Z,0.00
2018-09-09T21:06:07.465Z,0.00
2018-09-09T21:09:07.420Z,0.00
2018-09-09T21:12:07.383Z,0.00
2018-09-09T21:15:07.314Z,0.00
2018-09-09T21:18:07.318Z,0.00
2018-09-09T21:21:07.271Z,0.00
2018-09-09T21:24:07.254Z,0.00
2018-09-09T21:27:07.190Z,0.00
2018-09-09T21:30:07.183Z,0.00
2018-09-09T21:33:07.136Z,0.00
2018-09-09T21:36:07.115Z,0.00
2018-09-09T21:39:07.067Z,0.00
2018-09-09T21:42:07.055Z,0.00
2018-09-09T21:45:06.975Z,0.00
2018-09-09T21:48:07.007Z,0.00
2018-09-09T21:51:06.915Z,0.00
2018-09-09T21:54:06.933Z,0.00
2018-09-09T21:57:06.869Z,0.00
2018-09-09T22:00:06.838Z,0.00
2018-09-09T22:03:06.798Z,0.00
2018-09-09T22:06:06.785Z,0.00
2018-09-09T22:09:06.741Z,0.00
2018-09-09T22:12:06.721Z,0.00
2018-09-09T22:15:06.690Z,0.00
2018-09-09T22:18:06.646Z,0.00
2018-09-09T22:21:06.620Z,0.00
2018-09-09T22:24:06.583Z,0.00
2018-09-09T22:27:06.511Z,0.00
2018-09-09T22:30:06.507Z,0.00
2018-09-09T22:33:06.475Z,0.00
2018-09-09T22:36:06.495Z,0.00
2018-09-09T22:39:06.429Z,0.00
2018-09-09T22:42:06.371Z,0.00
2018-09-09T22:45:06.309Z,0.00
2018-09-09T22:48:06.330Z,0.00
2018-09-09T22:51:06.263Z,0.00
2018-09-09T22:54:06.240Z,0.00
2018-09-09T22:57:06.191Z,0.00
2018-09-09T23:00:06.152Z,0.00
2018-09-09T23:03:06.114Z,0.00
2018-09-09T23:06:06.104Z,0.00
2018-09-09T23:09:06.061Z,0.00
2018-09-09T23:12:06.033Z,0.00
2018-09-09T23:15:05.980Z,0.00
2018-09-09T23:18:05.953Z,0.00
2018-09-09T23:21:05.908Z,0.00
2018-09-09T23:24:05.948Z,0.00
2018-09-09T23:27:05.833Z,0.00
2018-09-09T23:30:05.828Z,0.00
2018-09-09T23:33:05.767Z,0.00
2018-09-09T23:36:05.799Z,0.00
2018-09-09T23:39:05.701Z,0.00
2018-09-09T23:42:05.686Z,0.00
2018-09-09T23:45:05.636Z,0.00
2018-09-09T23:48:05.625Z,0.00
2018-09-09T23:51:05.587Z,0.00
2018-09-09T23:54:05.545Z,0.00
2018-09-09T23:57:05.516Z,0.00
